Fairbury, Nebraska
Current Conditions -  °F | °C
As of 7:55 AM on Wednesday 26 Nov 2014 (Local Time) from KHJH Reporting Station
Overcast Overcast  
Wind Chill: 26°   Ceiling: 3600
Heat Index: 37°   Visibility: 10mi
Dew Point: 23°   Wind: 23mph
Humidity: 57%   Direction: 330°NNW
Pressure: 30.04"   Gusts: 35mph
Location:  40.14°N, 97.18°W
Report Text: KHJH 261355Z AUTO 33020G30KT 10SM BKN036 OVC050 03/M05 A3004 RMK AO2 T00281050
Loading
Personal Weather Stations






























Interactive Weather Map New forecast layout! Learn more

10-Day Weather Forecast

Advertisements
Track Severe Weather on mobile